sensor_id;sensor_type;location;lat;lon;timestamp;pressure;altitude;pressure_sealevel;temperature;humidity
58245;BME280;44550;43.864;25.986;2023-08-06T00:02:58;99703.25;;;24.03;90.33
58245;BME280;44550;43.864;25.986;2023-08-06T00:08:07;99705.31;;;23.85;92.31
58245;BME280;44550;43.864;25.986;2023-08-06T00:14:56;99667.97;;;23.56;94.25
58245;BME280;44550;43.864;25.986;2023-08-06T00:17:30;99666.16;;;23.57;95.23
58245;BME280;44550;43.864;25.986;2023-08-06T00:32:25;99620.47;;;23.34;97.85
58245;BME280;44550;43.864;25.986;2023-08-06T00:42:12;99633.84;;;23.06;100.00
58245;BME280;44550;43.864;25.986;2023-08-06T00:46:57;99646.13;;;23.08;100.00
58245;BME280;44550;43.864;25.986;2023-08-06T00:51:48;99611.25;;;22.83;100.00
58245;BME280;44550;43.864;25.986;2023-08-06T00:56:32;99630.97;;;22.94;100.00
58245;BME280;44550;43.864;25.986;2023-08-06T01:01:23;99621.44;;;22.76;100.00
58245;BME280;44550;43.864;25.986;2023-08-06T01:11:23;99660.41;;;23.21;100.00
58245;BME280;44550;43.864;25.986;2023-08-06T01:21:51;99665.56;;;23.25;100.00
58245;BME280;44550;43.864;25.986;2023-08-06T01:32:52;99664.03;;;23.35;100.00
58245;BME280;44550;43.864;25.986;2023-08-06T01:50:47;99645.59;;;22.87;100.00
58245;BME280;44550;43.864;25.986;2023-08-06T01:55:53;99645.22;;;22.79;100.00
58245;BME280;44550;43.864;25.986;2023-08-06T02:00:34;99664.25;;;22.87;100.00
58245;BME280;44550;43.864;25.986;2023-08-06T02:28:10;99673.53;;;24.22;93.85
58245;BME280;44550;43.864;25.986;2023-08-06T02:32:21;99674.06;;;24.27;89.45
58245;BME280;44550;43.864;25.986;2023-08-06T02:36:22;99649.31;;;24.10;84.79
58245;BME280;44550;43.864;25.986;2023-08-06T02:40:21;99673.44;;;24.36;83.40
58245;BME280;44550;43.864;25.986;2023-08-06T02:44:31;99664.94;;;24.17;82.28
58245;BME280;44550;43.864;25.986;2023-08-06T02:48:34;99675.44;;;24.20;81.51
58245;BME280;44550;43.864;25.986;2023-08-06T02:52:40;99679.06;;;24.19;81.13
58245;BME280;44550;43.864;25.986;2023-08-06T02:56:43;99678.44;;;23.88;81.59
58245;BME280;44550;43.864;25.986;2023-08-06T03:01:01;99696.00;;;24.05;81.37
58245;BME280;44550;43.864;25.986;2023-08-06T03:05:24;99690.09;;;24.00;79.18
58245;BME280;44550;43.864;25.986;2023-08-06T03:09:26;99672.72;;;23.65;80.29
58245;BME280;44550;43.864;25.986;2023-08-06T03:13:31;99677.16;;;23.38;81.63
58245;BME280;44550;43.864;25.986;2023-08-06T03:17:49;99683.34;;;23.38;81.71
58245;BME280;44550;43.864;25.986;2023-08-06T03:21:54;99671.38;;;23.31;81.85
58245;BME280;44550;43.864;25.986;2023-08-06T03:25:55;99675.34;;;23.24;82.16
58245;BME280;44550;43.864;25.986;2023-08-06T03:30:07;99673.94;;;23.18;82.10
58245;BME280;44550;43.864;25.986;2023-08-06T03:34:10;99676.22;;;23.10;82.51
58245;BME280;44550;43.864;25.986;2023-08-06T03:38:10;99687.81;;;23.24;81.92
58245;BME280;44550;43.864;25.986;2023-08-06T03:42:15;99688.59;;;23.40;81.06
58245;BME280;44550;43.864;25.986;2023-08-06T03:46:18;99680.34;;;23.57;80.03
58245;BME280;44550;43.864;25.986;2023-08-06T03:50:45;99656.59;;;23.26;80.76
58245;BME280;44550;43.864;25.986;2023-08-06T03:55:21;99666.97;;;23.30;81.49
58245;BME280;44550;43.864;25.986;2023-08-06T03:59:32;99670.75;;;23.69;79.80
58245;BME280;44550;43.864;25.986;2023-08-06T04:03:36;99640.69;;;23.80;78.93
58245;BME280;44550;43.864;25.986;2023-08-06T04:07:59;99666.25;;;24.11;77.83
58245;BME280;44550;43.864;25.986;2023-08-06T04:12:17;99617.81;;;24.43;75.67
58245;BME280;44550;43.864;25.986;2023-08-06T04:16:32;99646.81;;;24.87;74.19
58245;BME280;44550;43.864;25.986;2023-08-06T04:20:49;99656.00;;;24.96;73.60
58245;BME280;44550;43.864;25.986;2023-08-06T04:24:55;99646.41;;;24.80;74.51
58245;BME280;44550;43.864;25.986;2023-08-06T04:28:55;99626.38;;;24.86;73.80
58245;BME280;44550;43.864;25.986;2023-08-06T04:32:56;99659.00;;;25.04;73.60
58245;BME280;44550;43.864;25.986;2023-08-06T04:36:57;99657.28;;;25.41;72.56
58245;BME280;44550;43.864;25.986;2023-08-06T04:41:22;99662.00;;;25.74;71.86
58245;BME280;44550;43.864;25.986;2023-08-06T04:45:45;99662.31;;;25.83;70.49
58245;BME280;44550;43.864;25.986;2023-08-06T04:49:48;99636.91;;;25.51;71.45
58245;BME280;44550;43.864;25.986;2023-08-06T04:53:58;99659.97;;;26.02;69.90
58245;BME280;44550;43.864;25.986;2023-08-06T04:58:02;99651.06;;;26.50;68.57
58245;BME280;44550;43.864;25.986;2023-08-06T05:02:14;99645.84;;;26.59;67.23
58245;BME280;44550;43.864;25.986;2023-08-06T05:06:34;99632.31;;;26.61;66.54
58245;BME280;44550;43.864;25.986;2023-08-06T05:10:37;99639.34;;;26.51;67.12
58245;BME280;44550;43.864;25.986;2023-08-06T05:14:43;99648.44;;;26.37;68.22
58245;BME280;44550;43.864;25.986;2023-08-06T05:18:51;99607.47;;;26.23;67.42
58245;BME280;44550;43.864;25.986;2023-08-06T05:22:58;99630.44;;;27.19;65.06
58245;BME280;44550;43.864;25.986;2023-08-06T05:27:00;99645.69;;;27.30;64.67
58245;BME280;44550;43.864;25.986;2023-08-06T05:37:03;99647.03;;;27.13;64.97
58245;BME280;44550;43.864;25.986;2023-08-06T05:41:04;99619.91;;;26.71;66.40
58245;BME280;44550;43.864;25.986;2023-08-06T05:45:04;99637.97;;;27.03;65.73
58245;BME280;44550;43.864;25.986;2023-08-06T05:49:34;99602.72;;;27.07;63.24
58245;BME280;44550;43.864;25.986;2023-08-06T05:53:47;99635.28;;;27.48;62.71
58245;BME280;44550;43.864;25.986;2023-08-06T05:57:57;99639.03;;;28.11;60.87
58245;BME280;44550;43.864;25.986;2023-08-06T06:02:00;99619.19;;;28.23;59.30
58245;BME280;44550;43.864;25.986;2023-08-06T06:06:20;99619.19;;;28.23;58.79
58245;BME280;44550;43.864;25.986;2023-08-06T06:10:41;99602.56;;;27.65;61.00
58245;BME280;44550;43.864;25.986;2023-08-06T06:14:40;99629.81;;;27.49;61.59
58245;BME280;44550;43.864;25.986;2023-08-06T06:18:47;99627.78;;;27.74;60.71
58245;BME280;44550;43.864;25.986;2023-08-06T06:22:55;99596.19;;;27.55;60.36
58245;BME280;44550;43.864;25.986;2023-08-06T06:27:14;99631.69;;;27.81;58.99
58245;BME280;44550;43.864;25.986;2023-08-06T06:32:00;99627.44;;;28.10;58.79
58245;BME280;44550;43.864;25.986;2023-08-06T06:36:14;99620.13;;;27.69;59.59
58245;BME280;44550;43.864;25.986;2023-08-06T06:40:14;99620.84;;;26.59;64.74
58245;BME280;44550;43.864;25.986;2023-08-06T06:44:40;99601.25;;;25.99;65.19
58245;BME280;44550;43.864;25.986;2023-08-06T06:48:41;99632.28;;;26.25;65.66
58245;BME280;44550;43.864;25.986;2023-08-06T06:53:18;99627.22;;;26.34;64.83
58245;BME280;44550;43.864;25.986;2023-08-06T06:57:51;99624.34;;;26.13;66.21
58245;BME280;44550;43.864;25.986;2023-08-06T07:02:05;99627.72;;;26.04;67.21
58245;BME280;44550;43.864;25.986;2023-08-06T07:07:15;99611.50;;;26.87;63.44
58245;BME280;44550;43.864;25.986;2023-08-06T07:12:16;99637.59;;;27.07;61.57
58245;BME280;44550;43.864;25.986;2023-08-06T07:16:53;99641.59;;;26.68;62.97
58245;BME280;44550;43.864;25.986;2023-08-06T07:26:10;99654.34;;;27.33;61.26
58245;BME280;44550;43.864;25.986;2023-08-06T07:30:37;99657.25;;;26.97;62.07
58245;BME280;44550;43.864;25.986;2023-08-06T07:35:23;99654.66;;;26.73;63.29
58245;BME280;44550;43.864;25.986;2023-08-06T07:50:00;99656.53;;;27.17;60.61
58245;BME280;44550;43.864;25.986;2023-08-06T07:54:02;99634.06;;;26.73;62.24
58245;BME280;44550;43.864;25.986;2023-08-06T08:04:26;99654.91;;;26.92;62.19
58245;BME280;44550;43.864;25.986;2023-08-06T08:14:40;99660.31;;;27.14;62.33
58245;BME280;44550;43.864;25.986;2023-08-06T08:24:54;99651.53;;;27.35;61.87
58245;BME280;44550;43.864;25.986;2023-08-06T08:29:17;99666.06;;;28.09;59.58
58245;BME280;44550;43.864;25.986;2023-08-06T08:33:23;99690.81;;;27.58;60.92
58245;BME280;44550;43.864;25.986;2023-08-06T08:37:24;99699.81;;;27.91;60.13
58245;BME280;44550;43.864;25.986;2023-08-06T08:41:31;99697.66;;;27.85;59.66
58245;BME280;44550;43.864;25.986;2023-08-06T08:45:42;99704.25;;;27.47;61.71
58245;BME280;44550;43.864;25.986;2023-08-06T08:49:47;99709.84;;;27.78;60.32
58245;BME280;44550;43.864;25.986;2023-08-06T08:53:49;99709.09;;;27.76;61.21
58245;BME280;44550;43.864;25.986;2023-08-06T08:57:58;99707.59;;;28.05;60.40
58245;BME280;44550;43.864;25.986;2023-08-06T09:02:09;99705.53;;;28.09;60.13
58245;BME280;44550;43.864;25.986;2023-08-06T09:06:11;99670.53;;;28.20;60.48
58245;BME280;44550;43.864;25.986;2023-08-06T09:10:12;99704.91;;;28.49;59.63
58245;BME280;44550;43.864;25.986;2023-08-06T09:14:17;99699.06;;;28.44;59.47
58245;BME280;44550;43.864;25.986;2023-08-06T09:18:26;99689.13;;;28.44;59.30
58245;BME280;44550;43.864;25.986;2023-08-06T09:22:33;99692.47;;;28.69;59.41
58245;BME280;44550;43.864;25.986;2023-08-06T09:26:34;99681.41;;;29.14;58.94
58245;BME280;44550;43.864;25.986;2023-08-06T09:30:37;99668.59;;;29.37;58.21
58245;BME280;44550;43.864;25.986;2023-08-06T09:34:38;99654.56;;;29.83;58.56
58245;BME280;44550;43.864;25.986;2023-08-06T09:38:39;99644.25;;;29.38;59.91
58245;BME280;44550;43.864;25.986;2023-08-06T09:42:42;99638.03;;;29.07;61.45
58245;BME280;44550;43.864;25.986;2023-08-06T09:46:50;99629.44;;;29.23;61.25
58245;BME280;44550;43.864;25.986;2023-08-06T09:50:57;99610.00;;;28.89;63.02
58245;BME280;44550;43.864;25.986;2023-08-06T09:54:57;99565.59;;;28.73;63.20
58245;BME280;44550;43.864;25.986;2023-08-06T09:58:57;99608.84;;;28.82;64.06
58245;BME280;44550;43.864;25.986;2023-08-06T10:03:02;99612.81;;;28.24;66.40
58245;BME280;44550;43.864;25.986;2023-08-06T10:07:02;99620.09;;;28.66;65.47
58245;BME280;44550;43.864;25.986;2023-08-06T10:11:02;99635.75;;;28.40;66.30
58245;BME280;44550;43.864;25.986;2023-08-06T10:15:06;99641.25;;;28.38;67.55
58245;BME280;44550;43.864;25.986;2023-08-06T10:19:11;99656.00;;;27.68;69.84
58245;BME280;44550;43.864;25.986;2023-08-06T10:23:33;99685.44;;;27.70;71.10
58245;BME280;44550;43.864;25.986;2023-08-06T10:28:01;99643.38;;;27.36;71.87
58245;BME280;44550;43.864;25.986;2023-08-06T10:32:10;99635.31;;;27.14;77.42
58245;BME280;44550;43.864;25.986;2023-08-06T10:36:13;99693.84;;;27.09;80.56
58245;BME280;44550;43.864;25.986;2023-08-06T10:40:20;99711.66;;;27.10;79.75
58245;BME280;44550;43.864;25.986;2023-08-06T10:44:21;99708.06;;;26.98;81.22
58245;BME280;44550;43.864;25.986;2023-08-06T10:48:34;99659.59;;;26.55;84.54
58245;BME280;44550;43.864;25.986;2023-08-06T10:52:37;99623.22;;;26.04;87.12
58245;BME280;44550;43.864;25.986;2023-08-06T10:56:41;99596.47;;;25.80;88.19
58245;BME280;44550;43.864;25.986;2023-08-06T11:00:42;99619.97;;;25.88;89.60
58245;BME280;44550;43.864;25.986;2023-08-06T11:04:45;99667.22;;;26.13;86.84
58245;BME280;44550;43.864;25.986;2023-08-06T11:08:50;99702.50;;;26.07;87.41
58245;BME280;44550;43.864;25.986;2023-08-06T11:12:52;99718.69;;;26.05;86.08
58245;BME280;44550;43.864;25.986;2023-08-06T11:16:54;99741.00;;;26.30;86.04
58245;BME280;44550;43.864;25.986;2023-08-06T11:20:54;99736.13;;;26.35;85.65
58245;BME280;44550;43.864;25.986;2023-08-06T11:24:57;99715.63;;;26.22;85.05
58245;BME280;44550;43.864;25.986;2023-08-06T11:28:58;99700.66;;;26.31;84.42
58245;BME280;44550;43.864;25.986;2023-08-06T11:32:57;99695.78;;;26.49;83.51
58245;BME280;44550;43.864;25.986;2023-08-06T11:36:57;99675.50;;;26.69;82.50
58245;BME280;44550;43.864;25.986;2023-08-06T11:41:00;99686.34;;;26.79;82.35
58245;BME280;44550;43.864;25.986;2023-08-06T11:45:02;99663.66;;;26.71;82.84
58245;BME280;44550;43.864;25.986;2023-08-06T11:49:01;99611.75;;;26.84;81.18
58245;BME280;44550;43.864;25.986;2023-08-06T11:53:01;99614.31;;;27.30;79.94
58245;BME280;44550;43.864;25.986;2023-08-06T11:57:05;99624.81;;;27.33;79.90
58245;BME280;44550;43.864;25.986;2023-08-06T12:01:07;99642.00;;;27.53;78.52
58245;BME280;44550;43.864;25.986;2023-08-06T12:05:11;99650.91;;;27.31;78.83
58245;BME280;44550;43.864;25.986;2023-08-06T12:09:11;99646.56;;;27.19;80.18
58245;BME280;44550;43.864;25.986;2023-08-06T12:13:16;99638.00;;;27.25;79.78
58245;BME280;44550;43.864;25.986;2023-08-06T12:17:16;99634.34;;;27.26;79.47
58245;BME280;44550;43.864;25.986;2023-08-06T12:21:18;99650.81;;;27.33;79.65
58245;BME280;44550;43.864;25.986;2023-08-06T12:25:17;99650.03;;;27.53;77.61
58245;BME280;44550;43.864;25.986;2023-08-06T12:29:19;99662.94;;;27.71;76.25
58245;BME280;44550;43.864;25.986;2023-08-06T12:33:19;99641.38;;;27.50;74.51
58245;BME280;44550;43.864;25.986;2023-08-06T12:37:19;99630.75;;;27.48;73.39
58245;BME280;44550;43.864;25.986;2023-08-06T12:41:23;99608.84;;;27.32;73.21
58245;BME280;44550;43.864;25.986;2023-08-06T12:45:25;99594.19;;;26.91;74.00
58245;BME280;44550;43.864;25.986;2023-08-06T12:49:28;99588.84;;;27.13;73.87
58245;BME280;44550;43.864;25.986;2023-08-06T12:53:30;99599.91;;;26.98;74.26
58245;BME280;44550;43.864;25.986;2023-08-06T12:57:30;99607.63;;;27.25;73.65
58245;BME280;44550;43.864;25.986;2023-08-06T13:01:53;99611.09;;;27.59;72.46
58245;BME280;44550;43.864;25.986;2023-08-06T13:05:55;99620.41;;;27.44;71.69
58245;BME280;44550;43.864;25.986;2023-08-06T13:10:10;99588.22;;;27.21;72.22
58245;BME280;44550;43.864;25.986;2023-08-06T13:14:24;99615.78;;;27.01;77.23
58245;BME280;44550;43.864;25.986;2023-08-06T13:18:43;99613.84;;;27.25;74.75
58245;BME280;44550;43.864;25.986;2023-08-06T13:22:48;99622.41;;;27.74;73.00
58245;BME280;44550;43.864;25.986;2023-08-06T13:26:57;99619.97;;;27.71;70.70
58245;BME280;44550;43.864;25.986;2023-08-06T13:30:56;99616.34;;;27.60;68.95
58245;BME280;44550;43.864;25.986;2023-08-06T13:35:01;99616.59;;;27.69;67.29
58245;BME280;44550;43.864;25.986;2023-08-06T13:39:01;99611.50;;;27.43;66.72
58245;BME280;44550;43.864;25.986;2023-08-06T13:43:04;99613.06;;;27.57;66.71
58245;BME280;44550;43.864;25.986;2023-08-06T13:47:07;99608.13;;;27.73;63.24
58245;BME280;44550;43.864;25.986;2023-08-06T13:51:09;99621.19;;;28.21;61.70
58245;BME280;44550;43.864;25.986;2023-08-06T13:55:10;99614.81;;;28.22;61.19
58245;BME280;44550;43.864;25.986;2023-08-06T13:59:12;99608.19;;;27.94;62.74
58245;BME280;44550;43.864;25.986;2023-08-06T14:03:16;99623.19;;;28.08;62.75
58245;BME280;44550;43.864;25.986;2023-08-06T14:07:22;99615.81;;;28.21;61.77
58245;BME280;44550;43.864;25.986;2023-08-06T14:11:22;99577.22;;;27.90;62.73
58245;BME280;44550;43.864;25.986;2023-08-06T14:15:22;99601.22;;;28.24;62.47
58245;BME280;44550;43.864;25.986;2023-08-06T14:19:23;99605.16;;;28.52;61.84
58245;BME280;44550;43.864;25.986;2023-08-06T14:23:25;99604.06;;;28.64;62.06
58245;BME280;44550;43.864;25.986;2023-08-06T14:27:25;99599.94;;;28.60;60.05
58245;BME280;44550;43.864;25.986;2023-08-06T14:31:25;99592.91;;;28.69;60.11
58245;BME280;44550;43.864;25.986;2023-08-06T14:35:28;99592.56;;;28.83;57.20
58245;BME280;44550;43.864;25.986;2023-08-06T14:39:30;99564.00;;;28.61;56.78
58245;BME280;44550;43.864;25.986;2023-08-06T14:43:33;99607.22;;;29.21;55.51
58245;BME280;44550;43.864;25.986;2023-08-06T14:47:35;99603.16;;;29.46;53.59
58245;BME280;44550;43.864;25.986;2023-08-06T14:51:39;99593.97;;;29.58;52.90
58245;BME280;44550;43.864;25.986;2023-08-06T14:55:41;99605.00;;;29.45;54.27
58245;BME280;44550;43.864;25.986;2023-08-06T14:59:56;99607.97;;;29.42;54.52
58245;BME280;44550;43.864;25.986;2023-08-06T15:04:01;99621.59;;;29.41;54.29
58245;BME280;44550;43.864;25.986;2023-08-06T15:08:10;99623.13;;;29.43;53.89
58245;BME280;44550;43.864;25.986;2023-08-06T15:12:42;99608.75;;;29.23;54.96
58245;BME280;44550;43.864;25.986;2023-08-06T15:16:46;99590.38;;;28.98;54.63
58245;BME280;44550;43.864;25.986;2023-08-06T15:20:46;99615.31;;;29.00;55.13
58245;BME280;44550;43.864;25.986;2023-08-06T15:25:01;99625.59;;;29.16;55.22
58245;BME280;44550;43.864;25.986;2023-08-06T15:29:42;99631.16;;;29.24;54.96
58245;BME280;44550;43.864;25.986;2023-08-06T15:33:44;99634.72;;;29.24;54.26
58245;BME280;44550;43.864;25.986;2023-08-06T15:37:51;99622.28;;;29.02;53.82
58245;BME280;44550;43.864;25.986;2023-08-06T15:42:02;99621.34;;;29.13;53.40
58245;BME280;44550;43.864;25.986;2023-08-06T15:46:12;99609.03;;;29.20;52.68
58245;BME280;44550;43.864;25.986;2023-08-06T15:50:20;99620.00;;;29.38;52.26
58245;BME280;44550;43.864;25.986;2023-08-06T15:54:26;99630.03;;;29.26;51.80
58245;BME280;44550;43.864;25.986;2023-08-06T15:58:28;99633.81;;;29.14;52.37
58245;BME280;44550;43.864;25.986;2023-08-06T16:02:31;99625.34;;;29.19;51.95
58245;BME280;44550;43.864;25.986;2023-08-06T16:06:47;99618.22;;;29.08;52.55
58245;BME280;44550;43.864;25.986;2023-08-06T16:11:00;99591.91;;;29.21;52.18
58245;BME280;44550;43.864;25.986;2023-08-06T16:15:24;99631.94;;;29.45;51.40
58245;BME280;44550;43.864;25.986;2023-08-06T16:19:26;99634.47;;;29.37;51.53
58245;BME280;44550;43.864;25.986;2023-08-06T16:23:51;99631.03;;;29.25;52.00
58245;BME280;44550;43.864;25.986;2023-08-06T16:28:15;99613.16;;;29.24;51.67
58245;BME280;44550;43.864;25.986;2023-08-06T16:32:15;99632.31;;;29.31;51.70
58245;BME280;44550;43.864;25.986;2023-08-06T16:36:17;99646.25;;;29.46;51.74
58245;BME280;44550;43.864;25.986;2023-08-06T16:40:23;99644.63;;;29.34;51.41
58245;BME280;44550;43.864;25.986;2023-08-06T16:44:33;99653.91;;;29.10;52.25
58245;BME280;44550;43.864;25.986;2023-08-06T16:48:38;99652.75;;;29.03;52.73
58245;BME280;44550;43.864;25.986;2023-08-06T16:52:52;99660.63;;;28.95;52.79
58245;BME280;44550;43.864;25.986;2023-08-06T16:56:54;99646.19;;;28.75;52.36
58245;BME280;44550;43.864;25.986;2023-08-06T17:01:07;99662.72;;;28.91;52.30
58245;BME280;44550;43.864;25.986;2023-08-06T17:05:10;99668.94;;;28.92;52.31
58245;BME280;44550;43.864;25.986;2023-08-06T17:09:32;99672.44;;;28.83;52.90
58245;BME280;44550;43.864;25.986;2023-08-06T17:14:16;99651.03;;;28.60;53.35
58245;BME280;44550;43.864;25.986;2023-08-06T17:18:26;99662.59;;;28.51;53.32
58245;BME280;44550;43.864;25.986;2023-08-06T17:22:28;99680.53;;;28.62;51.52
58245;BME280;44550;43.864;25.986;2023-08-06T17:26:38;99673.34;;;28.51;50.71
58245;BME280;44550;43.864;25.986;2023-08-06T17:30:39;99680.22;;;28.44;50.78
58245;BME280;44550;43.864;25.986;2023-08-06T17:34:56;99674.06;;;28.21;50.89
58245;BME280;44550;43.864;25.986;2023-08-06T17:39:01;99675.56;;;28.14;50.83
58245;BME280;44550;43.864;25.986;2023-08-06T17:43:12;99689.25;;;28.10;50.74
58245;BME280;44550;43.864;25.986;2023-08-06T17:47:19;99693.41;;;28.15;50.62
58245;BME280;44550;43.864;25.986;2023-08-06T17:51:45;99675.16;;;27.86;50.89
58245;BME280;44550;43.864;25.986;2023-08-06T17:55:51;99713.25;;;27.91;51.54
58245;BME280;44550;43.864;25.986;2023-08-06T18:00:00;99703.63;;;27.89;51.85
58245;BME280;44550;43.864;25.986;2023-08-06T18:04:07;99711.53;;;28.01;51.38
58245;BME280;44550;43.864;25.986;2023-08-06T18:08:11;99716.41;;;27.96;51.49
58245;BME280;44550;43.864;25.986;2023-08-06T18:12:35;99683.97;;;27.66;51.58
58245;BME280;44550;43.864;25.986;2023-08-06T18:17:06;99711.78;;;27.64;51.96
58245;BME280;44550;43.864;25.986;2023-08-06T18:21:20;99729.75;;;27.64;51.99
58245;BME280;44550;43.864;25.986;2023-08-06T18:25:20;99727.06;;;27.53;52.35
58245;BME280;44550;43.864;25.986;2023-08-06T18:29:20;99713.16;;;27.36;52.52
58245;BME280;44550;43.864;25.986;2023-08-06T18:33:27;99739.28;;;27.46;52.89
58245;BME280;44550;43.864;25.986;2023-08-06T18:37:32;99750.50;;;27.51;53.15
58245;BME280;44550;43.864;25.986;2023-08-06T18:41:38;99739.53;;;27.43;53.70
58245;BME280;44550;43.864;25.986;2023-08-06T18:45:38;99742.19;;;27.31;54.42
58245;BME280;44550;43.864;25.986;2023-08-06T18:49:43;99735.34;;;27.27;54.68
58245;BME280;44550;43.864;25.986;2023-08-06T18:53:43;99731.34;;;27.33;54.62
58245;BME280;44550;43.864;25.986;2023-08-06T18:57:51;99730.94;;;27.15;55.48
58245;BME280;44550;43.864;25.986;2023-08-06T19:02:04;99728.03;;;27.18;55.36
58245;BME280;44550;43.864;25.986;2023-08-06T19:06:10;99730.09;;;27.14;55.72
58245;BME280;44550;43.864;25.986;2023-08-06T19:10:14;99757.31;;;27.21;56.08
58245;BME280;44550;43.864;25.986;2023-08-06T19:14:14;99729.22;;;27.03;56.31
58245;BME280;44550;43.864;25.986;2023-08-06T19:18:15;99765.41;;;26.97;57.57
58245;BME280;44550;43.864;25.986;2023-08-06T19:22:17;99765.28;;;26.99;57.97
58245;BME280;44550;43.864;25.986;2023-08-06T19:26:21;99776.13;;;26.86;58.97
58245;BME280;44550;43.864;25.986;2023-08-06T19:30:52;99787.63;;;26.75;60.08
58245;BME280;44550;43.864;25.986;2023-08-06T19:34:55;99795.59;;;26.77;61.11
58245;BME280;44550;43.864;25.986;2023-08-06T19:38:57;99790.84;;;26.80;61.55
58245;BME280;44550;43.864;25.986;2023-08-06T19:42:57;99804.59;;;26.76;62.01
58245;BME280;44550;43.864;25.986;2023-08-06T19:46:58;99779.31;;;26.43;63.09
58245;BME280;44550;43.864;25.986;2023-08-06T19:50:57;99823.53;;;26.61;63.18
58245;BME280;44550;43.864;25.986;2023-08-06T19:55:07;99847.41;;;26.53;63.54
58245;BME280;44550;43.864;25.986;2023-08-06T19:59:12;99855.84;;;26.47;63.78
58245;BME280;44550;43.864;25.986;2023-08-06T20:03:12;99867.78;;;26.43;63.45
58245;BME280;44550;43.864;25.986;2023-08-06T20:07:12;99869.53;;;26.31;63.51
58245;BME280;44550;43.864;25.986;2023-08-06T20:11:15;99865.09;;;26.06;63.91
58245;BME280;44550;43.864;25.986;2023-08-06T20:15:15;99873.19;;;26.17;63.52
58245;BME280;44550;43.864;25.986;2023-08-06T20:19:17;99872.59;;;26.01;63.49
58245;BME280;44550;43.864;25.986;2023-08-06T20:23:17;99872.94;;;25.84;64.26
58245;BME280;44550;43.864;25.986;2023-08-06T20:27:22;99876.56;;;25.83;64.50
58245;BME280;44550;43.864;25.986;2023-08-06T20:31:52;99901.81;;;25.78;65.02
58245;BME280;44550;43.864;25.986;2023-08-06T20:36:30;99899.44;;;25.61;66.12
58245;BME280;44550;43.864;25.986;2023-08-06T20:40:33;99907.28;;;25.64;67.22
58245;BME280;44550;43.864;25.986;2023-08-06T20:44:35;99910.72;;;25.66;67.15
58245;BME280;44550;43.864;25.986;2023-08-06T20:48:36;99921.50;;;25.52;67.63
58245;BME280;44550;43.864;25.986;2023-08-06T20:52:36;99923.09;;;25.42;67.77
58245;BME280;44550;43.864;25.986;2023-08-06T20:56:47;99920.81;;;25.08;68.08
58245;BME280;44550;43.864;25.986;2023-08-06T21:00:51;99924.09;;;24.99;67.48
58245;BME280;44550;43.864;25.986;2023-08-06T21:04:51;99906.63;;;24.81;67.33
58245;BME280;44550;43.864;25.986;2023-08-06T21:08:51;99943.84;;;25.11;66.56
58245;BME280;44550;43.864;25.986;2023-08-06T21:12:56;99948.25;;;25.12;65.71
58245;BME280;44550;43.864;25.986;2023-08-06T21:16:57;99951.69;;;25.00;65.43
58245;BME280;44550;43.864;25.986;2023-08-06T21:20:58;99910.06;;;24.69;65.71
58245;BME280;44550;43.864;25.986;2023-08-06T21:24:58;99963.03;;;24.76;66.07
58245;BME280;44550;43.864;25.986;2023-08-06T21:29:03;99968.78;;;24.84;65.94
58245;BME280;44550;43.864;25.986;2023-08-06T21:33:10;99960.09;;;24.67;66.89
58245;BME280;44550;43.864;25.986;2023-08-06T21:37:10;99960.88;;;24.69;66.72
58245;BME280;44550;43.864;25.986;2023-08-06T21:41:11;99970.31;;;24.74;66.48
58245;BME280;44550;43.864;25.986;2023-08-06T21:45:11;99960.78;;;24.70;66.82
58245;BME280;44550;43.864;25.986;2023-08-06T21:49:13;99956.50;;;24.39;67.52
58245;BME280;44550;43.864;25.986;2023-08-06T21:53:13;99963.00;;;24.49;67.49
58245;BME280;44550;43.864;25.986;2023-08-06T21:57:27;99985.91;;;24.53;67.71
58245;BME280;44550;43.864;25.986;2023-08-06T22:01:37;99982.72;;;24.32;68.39
58245;BME280;44550;43.864;25.986;2023-08-06T22:05:47;99994.94;;;24.22;69.14
58245;BME280;44550;43.864;25.986;2023-08-06T22:09:58;99999.69;;;24.17;69.48
58245;BME280;44550;43.864;25.986;2023-08-06T22:14:04;99997.88;;;24.03;69.71
58245;BME280;44550;43.864;25.986;2023-08-06T22:18:22;100021.25;;;24.00;70.10
58245;BME280;44550;43.864;25.986;2023-08-06T22:22:27;100008.47;;;24.05;69.99
58245;BME280;44550;43.864;25.986;2023-08-06T22:26:28;100009.31;;;23.91;70.73
58245;BME280;44550;43.864;25.986;2023-08-06T22:30:31;99982.06;;;23.70;70.60
58245;BME280;44550;43.864;25.986;2023-08-06T22:34:31;100035.56;;;23.99;70.80
58245;BME280;44550;43.864;25.986;2023-08-06T22:38:34;100020.50;;;23.98;70.64
58245;BME280;44550;43.864;25.986;2023-08-06T22:42:47;100046.88;;;23.88;71.86
58245;BME280;44550;43.864;25.986;2023-08-06T22:47:00;100048.81;;;23.70;73.01
58245;BME280;44550;43.864;25.986;2023-08-06T22:51:00;100063.13;;;23.69;73.79
58245;BME280;44550;43.864;25.986;2023-08-06T22:55:02;100063.13;;;23.69;74.19
58245;BME280;44550;43.864;25.986;2023-08-06T22:59:22;100064.13;;;23.51;75.27
58245;BME280;44550;43.864;25.986;2023-08-06T23:07:33;100066.13;;;23.47;76.48
58245;BME280;44550;43.864;25.986;2023-08-06T23:11:45;100062.94;;;23.56;76.15
58245;BME280;44550;43.864;25.986;2023-08-06T23:15:47;100063.72;;;23.58;76.19
58245;BME280;44550;43.864;25.986;2023-08-06T23:20:19;100043.00;;;23.32;76.50
58245;BME280;44550;43.864;25.986;2023-08-06T23:24:33;100078.03;;;23.26;75.86
58245;BME280;44550;43.864;25.986;2023-08-06T23:28:43;100084.91;;;23.14;76.45
58245;BME280;44550;43.864;25.986;2023-08-06T23:33:10;100080.84;;;23.07;76.78
58245;BME280;44550;43.864;25.986;2023-08-06T23:37:18;100081.22;;;22.83;77.02
58245;BME280;44550;43.864;25.986;2023-08-06T23:41:20;100065.22;;;22.67;76.81